YTBM weather

Tabulam Oval Helipad
New South Wales, Australia

Public forecast

Using degrees Celsius for public forecast. Weather courtesy of forecast.io.

METAR (pilot weather report)

Closest report is Casino Airport, 26.2 nm (48.6 km) E. Retrieved 2019/02/22 05:30 UTC (12 minutes ago):

YCAS 220530Z AUTO 17020G34KT //// // ////// 26/15 Q1011

TAF (pilot weather forecast)

Forecast is more than 12 hours old.

Closest forecast is Gold Coast Airport, 65.9 nm (122.1 km) NE. Retrieved 2019/02/19 00:00 UTC (3 days ago):

TAF YBCG 192316Z 2000/2024 16012KT 9999 FEW025 BKN035 FM200100 12014KT 9999 FEW030 FM200900 15012KT 9999 SCT020 FM201200 18008KT 9999 -SHRA BKN018 BKN030 FM202200 16018KT 9999 -SHRA SCT020 SCT040 TEMPO 2018/2022 5000 -SHRA BKN010